createdAt,value
2018-01-13T00:01:09.281Z,97.90
2018-01-13T00:03:36.769Z,98.10
2018-01-13T00:06:04.259Z,98.10
2018-01-13T00:08:31.742Z,97.90
2018-01-13T00:11:00.021Z,98.10
2018-01-13T00:13:28.272Z,98.00
2018-01-13T00:15:55.755Z,98.00
2018-01-13T00:18:23.281Z,98.00
2018-01-13T00:20:50.766Z,98.00
2018-01-13T00:23:18.280Z,98.00
2018-01-13T00:25:45.795Z,98.10
2018-01-13T00:28:14.079Z,98.20
2018-01-13T00:30:41.595Z,98.20
2018-01-13T00:33:09.081Z,98.20
2018-01-13T00:35:36.656Z,98.20
2018-01-13T00:38:04.154Z,98.10
2018-01-13T00:40:31.657Z,98.10
2018-01-13T00:42:59.945Z,98.30
2018-01-13T00:45:27.444Z,98.30
2018-01-13T00:47:54.936Z,98.30
2018-01-13T00:50:22.454Z,98.30
2018-01-13T00:52:49.959Z,98.40
2018-01-13T00:55:18.220Z,98.60
2018-01-13T00:57:45.716Z,98.50
2018-01-13T01:00:13.225Z,98.30
2018-01-13T01:02:40.725Z,98.30
2018-01-13T01:05:08.196Z,98.30
2018-01-13T01:07:36.529Z,98.40
2018-01-13T01:10:04.015Z,98.30
2018-01-13T01:12:31.508Z,98.20
2018-01-13T01:14:59.005Z,98.10
2018-01-13T01:17:26.514Z,98.10
2018-01-13T01:19:54.016Z,98.00
2018-01-13T01:22:21.540Z,97.90
2018-01-13T01:24:49.356Z,98.00
2018-01-13T01:27:16.842Z,97.90
2018-01-13T01:29:44.354Z,97.90
2018-01-13T01:32:11.877Z,98.10
2018-01-13T01:34:40.155Z,98.10
2018-01-13T01:37:08.509Z,98.10
2018-01-13T01:39:36.032Z,98.00
2018-01-13T01:42:04.316Z,98.20
2018-01-13T01:44:32.691Z,98.00
2018-01-13T01:47:00.150Z,97.80
2018-01-13T01:49:27.715Z,97.70
2018-01-13T01:51:55.974Z,97.50
2018-01-13T01:54:23.501Z,97.50
2018-01-13T01:56:51.784Z,97.00
2018-01-13T01:59:19.254Z,96.90
2018-01-13T02:01:46.739Z,97.10
2018-01-13T02:04:15.045Z,97.00
2018-01-13T02:06:42.593Z,96.90
2018-01-13T02:09:10.126Z,96.70
2018-01-13T02:11:37.640Z,96.30
2018-01-13T02:14:05.143Z,96.40
2018-01-13T02:16:33.400Z,96.60
2018-01-13T02:19:00.932Z,96.50
2018-01-13T02:21:28.436Z,96.40
2018-01-13T02:23:55.917Z,96.30
2018-01-13T02:26:23.426Z,96.00
2018-01-13T02:28:50.914Z,96.20
2018-01-13T02:31:19.213Z,96.20
2018-01-13T02:33:46.707Z,96.10
2018-01-13T02:36:14.277Z,96.00
2018-01-13T02:38:41.793Z,95.60
2018-01-13T02:41:09.302Z,95.80
2018-01-13T02:43:36.847Z,95.70
2018-01-13T02:46:04.344Z,95.50
2018-01-13T02:48:32.645Z,95.80
2018-01-13T02:51:00.889Z,95.60
2018-01-13T02:53:28.424Z,95.60
2018-01-13T02:55:55.949Z,95.10
2018-01-13T02:58:23.471Z,94.90
2018-01-13T03:00:51.726Z,94.90
2018-01-13T03:03:19.235Z,94.70
2018-01-13T03:05:46.738Z,94.60
2018-01-13T03:08:14.322Z,95.00
2018-01-13T03:10:42.634Z,94.70
2018-01-13T03:13:10.131Z,94.60
2018-01-13T03:15:39.162Z,94.60
2018-01-13T03:18:06.692Z,94.60
2018-01-13T03:20:35.456Z,95.10
2018-01-13T03:23:02.966Z,95.00
2018-01-13T03:25:30.468Z,94.90
2018-01-13T03:27:58.013Z,94.80
2018-01-13T03:30:25.514Z,94.90
2018-01-13T03:32:53.825Z,94.40
2018-01-13T03:35:21.360Z,94.30
2018-01-13T03:37:48.879Z,94.40
2018-01-13T03:40:17.185Z,94.90
2018-01-13T03:42:45.469Z,95.10
2018-01-13T03:45:13.727Z,95.00
2018-01-13T03:47:41.262Z,94.90
2018-01-13T03:50:09.005Z,94.90
2018-01-13T03:52:36.530Z,94.90
2018-01-13T03:55:04.046Z,95.00
2018-01-13T03:57:32.343Z,95.00
2018-01-13T04:00:00.633Z,94.70
2018-01-13T04:02:28.127Z,94.70
2018-01-13T04:04:55.907Z,94.80
2018-01-13T04:07:23.513Z,94.70
2018-01-13T04:09:51.147Z,94.50
2018-01-13T04:12:18.615Z,94.50
2018-01-13T04:14:46.118Z,94.60
2018-01-13T04:17:13.618Z,94.50
2018-01-13T04:19:41.115Z,94.50
2018-01-13T04:22:09.439Z,94.50
2018-01-13T04:24:36.943Z,94.40
2018-01-13T04:27:05.249Z,94.80
2018-01-13T04:29:32.777Z,94.60
2018-01-13T04:32:00.322Z,94.70
2018-01-13T04:34:28.609Z,94.70
2018-01-13T04:36:56.919Z,94.90
2018-01-13T04:39:24.450Z,94.70
2018-01-13T04:41:51.992Z,94.70
2018-01-13T04:44:19.568Z,94.70
2018-01-13T04:46:47.843Z,95.00
2018-01-13T04:49:16.126Z,95.10
2018-01-13T04:51:43.610Z,95.10
2018-01-13T04:54:11.482Z,94.90
2018-01-13T04:56:38.987Z,94.60
2018-01-13T04:59:06.491Z,94.40
2018-01-13T05:01:34.022Z,94.60
2018-01-13T05:04:01.541Z,94.60
2018-01-13T05:06:29.061Z,94.80
2018-01-13T05:08:56.585Z,94.90
2018-01-13T05:11:24.111Z,95.00
2018-01-13T05:13:51.684Z,95.30
2018-01-13T05:16:19.168Z,95.10
2018-01-13T05:18:47.455Z,95.40
2018-01-13T05:21:15.013Z,95.30
2018-01-13T05:23:43.267Z,95.10
2018-01-13T05:26:10.828Z,95.00
2018-01-13T05:28:38.338Z,95.10
2018-01-13T05:31:05.843Z,94.60
2018-01-13T05:33:34.128Z,95.30
2018-01-13T05:36:02.414Z,95.00
2018-01-13T05:38:29.927Z,94.80
2018-01-13T05:40:57.423Z,94.70
2018-01-13T05:43:24.936Z,94.80
2018-01-13T05:45:52.471Z,94.50
2018-01-13T05:48:20.067Z,94.60
2018-01-13T05:50:48.380Z,95.30
2018-01-13T05:53:16.631Z,95.40
2018-01-13T05:55:44.227Z,95.20
2018-01-13T05:58:11.731Z,95.70
2018-01-13T06:00:39.278Z,95.70
2018-01-13T06:03:06.817Z,95.60
2018-01-13T06:05:34.378Z,95.30
2018-01-13T06:08:01.902Z,95.50
2018-01-13T06:10:30.212Z,95.80
2018-01-13T06:12:57.733Z,95.80
2018-01-13T06:15:25.266Z,95.20
2018-01-13T06:17:52.807Z,95.40
2018-01-13T06:20:20.383Z,95.00
2018-01-13T06:22:50.168Z,95.00
2018-01-13T06:25:17.773Z,95.40
2018-01-13T06:27:46.131Z,95.40
2018-01-13T06:30:13.666Z,95.40
2018-01-13T06:32:41.258Z,95.30
2018-01-13T06:35:09.373Z,95.20
2018-01-13T06:37:36.866Z,95.30
2018-01-13T06:40:04.443Z,95.50
2018-01-13T06:42:31.930Z,95.50
2018-01-13T06:45:00.994Z,95.60
2018-01-13T06:47:28.524Z,95.50
2018-01-13T06:49:56.967Z,95.40
2018-01-13T06:52:26.041Z,95.50
2018-01-13T06:54:53.758Z,95.70
2018-01-13T06:57:23.751Z,95.30
2018-01-13T06:59:51.556Z,95.30
2018-01-13T07:02:19.055Z,95.40
2018-01-13T07:04:47.323Z,95.60
2018-01-13T07:07:14.845Z,95.50
2018-01-13T07:09:42.361Z,95.40
2018-01-13T07:12:09.905Z,95.40
2018-01-13T07:14:37.460Z,95.50
2018-01-13T07:17:04.994Z,95.20
2018-01-13T07:19:32.523Z,95.20
2018-01-13T07:22:00.040Z,95.10
2018-01-13T07:24:27.602Z,95.10
2018-01-13T07:26:55.146Z,95.00
2018-01-13T07:29:23.447Z,95.00
2018-01-13T07:31:51.750Z,95.00
2018-01-13T07:34:19.276Z,94.80
2018-01-13T07:36:46.890Z,95.00
2018-01-13T07:39:14.458Z,95.20
2018-01-13T07:41:43.327Z,94.90
2018-01-13T07:44:14.151Z,94.90
2018-01-13T07:46:41.722Z,94.60
2018-01-13T07:49:09.337Z,94.50
2018-01-13T07:51:36.887Z,94.60
2018-01-13T07:54:07.421Z,94.60
2018-01-13T07:56:34.899Z,94.60
2018-01-13T07:59:02.395Z,94.50
2018-01-13T08:01:29.904Z,94.40
2018-01-13T08:03:57.391Z,94.40
2018-01-13T08:06:24.901Z,94.30
2018-01-13T08:08:59.104Z,94.30
2018-01-13T08:11:26.656Z,94.30
2018-01-13T08:13:54.198Z,94.40
2018-01-13T08:16:21.754Z,94.30
2018-01-13T08:18:49.315Z,94.10
2018-01-13T08:21:16.831Z,94.10
2018-01-13T08:23:44.318Z,94.10
2018-01-13T08:26:11.817Z,93.90
2018-01-13T08:28:39.319Z,94.30
2018-01-13T08:31:07.571Z,93.90
2018-01-13T08:33:35.108Z,93.80
2018-01-13T08:36:02.591Z,93.50
2018-01-13T08:38:30.123Z,93.60
2018-01-13T08:40:57.622Z,93.70
2018-01-13T08:43:25.167Z,93.80
2018-01-13T08:45:52.667Z,93.40
2018-01-13T08:48:20.172Z,93.50
2018-01-13T08:50:47.689Z,93.60
2018-01-13T08:53:15.202Z,93.70
2018-01-13T08:55:42.730Z,93.80
2018-01-13T08:58:10.215Z,93.60
2018-01-13T09:00:38.482Z,93.40
2018-01-13T09:03:06.782Z,93.30
2018-01-13T09:05:34.307Z,93.10
2018-01-13T09:08:01.801Z,93.40
2018-01-13T09:10:29.312Z,93.20
2018-01-13T09:12:56.830Z,93.10
2018-01-13T09:15:24.338Z,93.10
2018-01-13T09:17:51.861Z,93.70
2018-01-13T09:20:19.348Z,93.60
2018-01-13T09:22:46.876Z,93.50
2018-01-13T09:25:14.382Z,93.70
2018-01-13T09:27:42.911Z,93.60
2018-01-13T09:30:10.467Z,93.50
2018-01-13T09:32:37.995Z,93.30
2018-01-13T09:35:05.508Z,93.30
2018-01-13T09:37:32.994Z,93.20
2018-01-13T09:40:01.567Z,93.40
2018-01-13T09:42:29.083Z,93.30
2018-01-13T09:44:56.598Z,93.20
2018-01-13T09:47:24.450Z,93.50
2018-01-13T09:49:52.366Z,93.40
2018-01-13T09:52:19.932Z,93.30
2018-01-13T09:54:47.452Z,93.20
2018-01-13T09:57:15.000Z,93.40
2018-01-13T09:59:43.283Z,93.50
2018-01-13T10:02:11.571Z,93.10
2018-01-13T10:04:39.844Z,93.30
2018-01-13T10:07:07.396Z,93.20
2018-01-13T10:09:35.650Z,93.20
2018-01-13T10:12:03.154Z,93.20
2018-01-13T10:14:30.660Z,92.70
2018-01-13T10:16:58.192Z,92.90
2018-01-13T10:19:25.695Z,93.00
2018-01-13T10:21:53.210Z,92.20
2018-01-13T10:24:20.733Z,92.50
2018-01-13T10:26:48.220Z,92.20
2018-01-13T10:29:15.703Z,92.40
2018-01-13T10:31:43.230Z,92.10
2018-01-13T10:34:10.729Z,92.00
2018-01-13T10:36:39.099Z,92.10
2018-01-13T10:39:06.599Z,92.00
2018-01-13T10:41:34.086Z,92.00
2018-01-13T10:44:01.614Z,91.80
2018-01-13T10:46:29.152Z,91.90
2018-01-13T10:48:56.642Z,92.00
2018-01-13T10:51:24.152Z,91.90
2018-01-13T10:53:51.671Z,92.10
2018-01-13T10:56:19.190Z,91.50
2018-01-13T10:58:47.480Z,91.70
2018-01-13T11:01:15.748Z,91.50
2018-01-13T11:03:44.022Z,91.80
2018-01-13T11:06:11.497Z,91.70
2018-01-13T11:08:38.998Z,91.50
2018-01-13T11:11:06.556Z,91.50
2018-01-13T11:13:34.047Z,91.30
2018-01-13T11:16:01.537Z,91.30
2018-01-13T11:18:29.075Z,91.50
2018-01-13T11:20:56.627Z,91.10
2018-01-13T11:23:24.189Z,91.00
2018-01-13T11:25:51.757Z,91.30
2018-01-13T11:28:19.317Z,91.40
2018-01-13T11:30:47.061Z,91.10
2018-01-13T11:33:14.586Z,91.10
2018-01-13T11:35:44.179Z,90.80
2018-01-13T11:38:11.666Z,90.90
2018-01-13T11:40:39.200Z,91.50
2018-01-13T11:43:06.700Z,91.30
2018-01-13T11:45:34.242Z,91.20
2018-01-13T11:48:01.819Z,91.40
2018-01-13T11:50:30.089Z,91.00
2018-01-13T11:52:57.590Z,90.90
2018-01-13T11:55:25.086Z,91.30
2018-01-13T11:57:52.653Z,91.00
2018-01-13T12:00:20.184Z,91.30
2018-01-13T12:02:47.799Z,91.40
2018-01-13T12:05:15.379Z,91.70
2018-01-13T12:07:42.898Z,91.80
2018-01-13T12:10:10.401Z,91.20
2018-01-13T12:12:37.943Z,91.20
2018-01-13T12:15:05.477Z,91.50
2018-01-13T12:17:33.006Z,91.30
2018-01-13T12:20:00.522Z,91.70
2018-01-13T12:22:28.332Z,91.40
2018-01-13T12:24:55.833Z,91.40
2018-01-13T12:27:25.038Z,91.50
2018-01-13T12:29:54.307Z,91.70
2018-01-13T12:32:22.601Z,92.00
2018-01-13T12:34:50.467Z,91.60
2018-01-13T12:37:17.910Z,91.30
2018-01-13T12:39:45.413Z,91.60
2018-01-13T12:42:12.932Z,91.50
2018-01-13T12:44:40.423Z,91.20
2018-01-13T12:47:08.527Z,91.60
2018-01-13T12:49:36.011Z,91.60
2018-01-13T12:52:03.523Z,91.50
2018-01-13T12:54:31.026Z,91.50
2018-01-13T12:56:58.568Z,91.50
2018-01-13T12:59:26.077Z,91.60
2018-01-13T13:01:53.564Z,91.40
2018-01-13T13:04:21.061Z,91.30
2018-01-13T13:06:48.567Z,91.10
2018-01-13T13:09:16.064Z,91.30
2018-01-13T13:11:43.852Z,91.20
2018-01-13T13:14:12.174Z,91.20
2018-01-13T13:16:39.677Z,91.20
2018-01-13T13:19:07.242Z,91.20
2018-01-13T13:21:34.763Z,91.10
2018-01-13T13:24:02.605Z,91.10
2018-01-13T13:26:30.124Z,91.20
2018-01-13T13:28:57.659Z,91.20
2018-01-13T13:31:27.568Z,91.00
2018-01-13T13:33:55.077Z,91.10
2018-01-13T13:36:22.623Z,91.00
2018-01-13T13:38:50.912Z,91.10
2018-01-13T13:41:18.406Z,91.10
2018-01-13T13:43:45.912Z,90.90
2018-01-13T13:46:14.173Z,90.90
2018-01-13T13:48:41.715Z,90.90
2018-01-13T13:51:09.230Z,90.90
2018-01-13T13:53:37.025Z,90.90
2018-01-13T13:56:04.528Z,90.90
2018-01-13T13:58:32.014Z,91.10
2018-01-13T14:01:22.123Z,90.60
2018-01-13T14:03:27.075Z,90.10
2018-01-13T14:05:54.591Z,90.20
2018-01-13T14:08:22.104Z,90.50
2018-01-13T14:10:49.584Z,90.60
2018-01-13T14:13:17.855Z,90.50
2018-01-13T14:15:46.165Z,90.60
2018-01-13T14:18:13.662Z,90.50
2018-01-13T14:20:41.173Z,90.70
2018-01-13T14:23:08.680Z,90.70
2018-01-13T14:25:36.208Z,90.70
2018-01-13T14:28:03.708Z,90.80
2018-01-13T14:30:31.211Z,90.90
2018-01-13T14:32:58.740Z,90.90
2018-01-13T14:35:26.428Z,90.70
2018-01-13T14:37:54.222Z,91.10
2018-01-13T14:40:21.745Z,90.80
2018-01-13T14:42:49.264Z,90.80
2018-01-13T14:45:16.766Z,90.80
2018-01-13T14:47:44.587Z,90.80
2018-01-13T14:50:12.159Z,90.70
2018-01-13T14:52:40.425Z,90.60
2018-01-13T14:55:07.956Z,90.50
2018-01-13T14:57:35.475Z,90.90
2018-01-13T15:00:02.988Z,90.80
2018-01-13T15:02:30.529Z,90.80
2018-01-13T15:04:58.797Z,90.90
2018-01-13T15:07:26.319Z,90.90
2018-01-13T15:09:54.040Z,91.00
2018-01-13T15:12:21.549Z,90.60
2018-01-13T15:14:49.074Z,90.30
2018-01-13T15:17:16.612Z,90.40
2018-01-13T15:19:44.200Z,90.30
2018-01-13T15:22:11.664Z,90.50
2018-01-13T15:24:39.938Z,90.60
2018-01-13T15:27:08.196Z,90.80
2018-01-13T15:29:36.486Z,90.50
2018-01-13T15:32:04.025Z,90.50
2018-01-13T15:34:31.537Z,90.60
2018-01-13T15:36:59.050Z,90.80
2018-01-13T15:39:29.477Z,90.60
2018-01-13T15:41:58.268Z,90.50
2018-01-13T15:44:26.032Z,90.50
2018-01-13T15:46:53.753Z,90.50
2018-01-13T15:49:21.483Z,90.40
2018-01-13T15:51:49.315Z,90.30
2018-01-13T15:54:17.158Z,90.40
2018-01-13T15:56:44.923Z,90.40
2018-01-13T15:59:12.426Z,90.60
2018-01-13T16:01:39.929Z,90.40
2018-01-13T16:04:07.429Z,90.40
2018-01-13T16:06:35.709Z,90.70
2018-01-13T16:09:03.219Z,90.50
2018-01-13T16:11:30.753Z,90.60
2018-01-13T16:13:58.305Z,90.30
2018-01-13T16:16:25.820Z,90.40
2018-01-13T16:18:53.375Z,90.50
2018-01-13T16:21:20.948Z,90.20
2018-01-13T16:23:48.525Z,90.10
2018-01-13T16:26:16.780Z,90.40
2018-01-13T16:28:44.273Z,90.30
2018-01-13T16:31:11.821Z,90.40
2018-01-13T16:33:39.340Z,90.60
2018-01-13T16:36:06.842Z,90.40
2018-01-13T16:38:34.333Z,90.60
2018-01-13T16:41:01.859Z,90.60
2018-01-13T16:43:29.374Z,90.40
2018-01-13T16:45:56.871Z,90.50
2018-01-13T16:48:24.387Z,90.50
2018-01-13T16:50:52.657Z,90.80
2018-01-13T16:53:20.180Z,90.70
2018-01-13T16:55:47.676Z,90.40
2018-01-13T16:58:15.852Z,90.40
2018-01-13T17:00:43.380Z,90.50
2018-01-13T17:03:10.893Z,90.70
2018-01-13T17:05:39.170Z,90.80
2018-01-13T17:08:07.454Z,90.80
2018-01-13T17:10:35.001Z,90.70
2018-01-13T17:13:02.662Z,91.00
2018-01-13T17:15:30.158Z,90.80
2018-01-13T17:17:58.442Z,90.90
2018-01-13T17:20:25.941Z,90.90
2018-01-13T17:22:53.493Z,90.60
2018-01-13T17:25:21.002Z,90.70
2018-01-13T17:27:48.581Z,90.80
2018-01-13T17:30:16.101Z,90.70
2018-01-13T17:32:43.654Z,90.80
2018-01-13T17:35:11.241Z,90.80
2018-01-13T17:37:39.499Z,90.80
2018-01-13T17:40:08.768Z,91.30
2018-01-13T17:42:36.726Z,91.20
2018-01-13T17:45:04.261Z,90.60
2018-01-13T17:47:31.834Z,90.60
2018-01-13T17:49:59.402Z,90.80
2018-01-13T17:52:27.381Z,90.70
2018-01-13T17:54:54.878Z,90.90
2018-01-13T17:57:22.387Z,90.80
2018-01-13T17:59:50.674Z,90.90
2018-01-13T18:02:18.196Z,90.80
2018-01-13T18:04:45.708Z,90.80
2018-01-13T18:07:13.202Z,90.40
2018-01-13T18:09:40.690Z,90.40
2018-01-13T18:12:08.183Z,90.70
2018-01-13T18:14:36.461Z,90.90
2018-01-13T18:17:04.741Z,90.60
2018-01-13T18:19:33.082Z,90.90
2018-01-13T18:22:00.598Z,90.80
2018-01-13T18:24:28.140Z,90.80
2018-01-13T18:26:55.655Z,90.60
2018-01-13T18:29:23.142Z,90.80
2018-01-13T18:31:50.655Z,90.80
2018-01-13T18:34:18.168Z,90.80
2018-01-13T18:36:46.422Z,91.00
2018-01-13T18:39:13.932Z,90.90
2018-01-13T18:41:41.441Z,90.80
2018-01-13T18:44:08.944Z,90.70
2018-01-13T18:46:36.438Z,90.90
2018-01-13T18:49:03.938Z,91.00
2018-01-13T18:51:32.231Z,91.10
2018-01-13T18:54:00.623Z,91.00
2018-01-13T18:56:28.171Z,91.20
2018-01-13T18:58:55.710Z,91.10
2018-01-13T19:01:23.273Z,91.10
2018-01-13T19:03:50.846Z,91.10
2018-01-13T19:06:18.417Z,91.00
2018-01-13T19:08:45.939Z,91.30
2018-01-13T19:11:14.204Z,91.40
2018-01-13T19:13:41.713Z,91.30
2018-01-13T19:16:09.260Z,91.10
2018-01-13T19:18:36.760Z,91.30
2018-01-13T19:21:04.260Z,91.40
2018-01-13T19:23:31.740Z,91.40
2018-01-13T19:25:59.250Z,91.40
2018-01-13T19:28:26.763Z,91.30
2018-01-13T19:30:54.272Z,91.30
2018-01-13T19:33:22.593Z,91.70
2018-01-13T19:35:50.108Z,91.60
2018-01-13T19:38:17.635Z,91.70
2018-01-13T19:40:45.146Z,91.70
2018-01-13T19:43:12.650Z,91.60
2018-01-13T19:45:40.163Z,91.70
2018-01-13T19:48:07.674Z,91.70
2018-01-13T19:50:35.186Z,91.60
2018-01-13T19:53:02.743Z,91.60
2018-01-13T19:55:30.272Z,91.70
2018-01-13T19:57:57.776Z,91.80
2018-01-13T20:00:25.287Z,91.90
2018-01-13T20:02:52.838Z,91.80
2018-01-13T20:05:20.783Z,91.70
2018-01-13T20:07:48.301Z,91.80
2018-01-13T20:10:15.811Z,91.80
2018-01-13T20:12:43.301Z,92.10
2018-01-13T20:15:10.833Z,92.00
2018-01-13T20:17:38.461Z,91.90
2018-01-13T20:20:05.974Z,92.00
2018-01-13T20:22:33.498Z,92.10
2018-01-13T20:25:00.995Z,92.00
2018-01-13T20:27:28.581Z,92.00
2018-01-13T20:29:56.120Z,92.00
2018-01-13T20:32:23.642Z,92.00
2018-01-13T20:34:51.539Z,92.00
2018-01-13T20:37:19.307Z,92.00
2018-01-13T20:39:46.825Z,91.90
2018-01-13T20:42:14.330Z,92.00
2018-01-13T20:44:42.585Z,92.10
2018-01-13T20:47:10.583Z,92.00
2018-01-13T20:49:38.079Z,92.10
2018-01-13T20:52:05.580Z,92.10
2018-01-13T20:54:34.245Z,92.50
2018-01-13T20:57:01.898Z,92.00
2018-01-13T20:59:30.225Z,92.30
2018-01-13T21:01:59.563Z,92.20
2018-01-13T21:04:27.813Z,92.10
2018-01-13T21:06:55.384Z,92.20
2018-01-13T21:09:22.854Z,92.20
2018-01-13T21:11:50.409Z,92.30
2018-01-13T21:14:17.908Z,92.30
2018-01-13T21:16:45.439Z,92.30
2018-01-13T21:19:12.947Z,92.40
2018-01-13T21:21:40.459Z,92.10
2018-01-13T21:24:08.017Z,92.40
2018-01-13T21:26:35.523Z,92.40
2018-01-13T21:29:03.059Z,92.40
2018-01-13T21:31:30.537Z,92.40
2018-01-13T21:33:58.035Z,92.40
2018-01-13T21:36:25.544Z,92.50
2018-01-13T21:38:53.802Z,92.60
2018-01-13T21:41:21.333Z,92.50
2018-01-13T21:43:48.819Z,92.40
2018-01-13T21:46:16.301Z,92.50
2018-01-13T21:48:44.557Z,92.70
2018-01-13T21:51:12.028Z,92.60
2018-01-13T21:53:39.520Z,92.50
2018-01-13T21:56:06.999Z,92.60
2018-01-13T21:58:35.244Z,92.60
2018-01-13T22:01:02.736Z,92.40
2018-01-13T22:03:30.220Z,92.60
2018-01-13T22:05:57.747Z,92.50
2018-01-13T22:08:25.242Z,92.60
2018-01-13T22:10:52.766Z,92.50
2018-01-13T22:13:20.257Z,92.50
2018-01-13T22:15:48.502Z,92.60
2018-01-13T22:18:15.996Z,92.50
2018-01-13T22:20:44.256Z,92.50
2018-01-13T22:23:11.755Z,92.40
2018-01-13T22:25:39.278Z,92.40
2018-01-13T22:28:06.757Z,92.50
2018-01-13T22:30:35.029Z,92.50
2018-01-13T22:33:02.509Z,92.40
2018-01-13T22:35:29.992Z,92.40
2018-01-13T22:37:57.503Z,92.50
2018-01-13T22:40:24.988Z,92.50
2018-01-13T22:42:52.492Z,92.60
2018-01-13T22:45:19.969Z,92.50
2018-01-13T22:47:47.460Z,92.30
2018-01-13T22:50:14.971Z,92.40
2018-01-13T22:52:42.425Z,92.40
2018-01-13T22:55:10.154Z,92.40
2018-01-13T22:57:37.647Z,92.40
2018-01-13T23:00:05.178Z,92.60
2018-01-13T23:02:32.664Z,92.40
2018-01-13T23:05:00.934Z,92.50
2018-01-13T23:07:28.475Z,92.50
2018-01-13T23:09:56.020Z,92.60
2018-01-13T23:12:23.561Z,92.40
2018-01-13T23:14:51.913Z,92.40
2018-01-13T23:17:19.375Z,92.30
2018-01-13T23:19:46.873Z,92.40
2018-01-13T23:22:14.360Z,92.40
2018-01-13T23:24:41.838Z,92.60
2018-01-13T23:27:21.898Z,92.70
2018-01-13T23:29:49.375Z,92.60
2018-01-13T23:32:16.887Z,92.60
2018-01-13T23:34:44.393Z,92.50
2018-01-13T23:37:11.873Z,92.60
2018-01-13T23:39:39.362Z,92.60
2018-01-13T23:42:06.849Z,92.70
2018-01-13T23:44:34.366Z,92.70
2018-01-13T23:47:01.854Z,92.70
2018-01-13T23:49:29.410Z,92.80
2018-01-13T23:51:56.974Z,92.80
2018-01-13T23:54:25.223Z,92.90
2018-01-13T23:56:52.719Z,92.80
2018-01-13T23:59:20.217Z,92.80
